createdAt,value
2018-01-31T01:52:21.407Z,12.0
2018-01-31T01:53:22.369Z,11.9
2018-01-31T01:54:24.122Z,10.8
2018-01-31T01:55:25.852Z,11.5
2018-01-31T01:56:27.578Z,10.4
2018-01-31T01:57:29.240Z,11.6
2018-01-31T01:58:30.966Z,11.0
2018-01-31T01:59:32.765Z,11.4
2018-01-31T02:00:34.485Z,10.8
2018-01-31T02:01:36.384Z,11.4
2018-01-31T02:02:38.086Z,11.9
2018-01-31T02:03:39.732Z,11.8
2018-01-31T02:04:41.637Z,11.5
2018-01-31T02:05:43.295Z,11.3
2018-01-31T02:06:44.911Z,10.7
2018-01-31T02:07:46.525Z,12.0
2018-01-31T02:08:48.261Z,11.9
2018-01-31T02:09:50.004Z,11.6
2018-01-31T02:10:51.696Z,11.3
2018-01-31T02:11:53.314Z,11.9
2018-01-31T02:12:54.964Z,11.9
2018-01-31T02:13:56.637Z,12.7
2018-01-31T02:14:58.470Z,12.1
2018-01-31T02:16:00.071Z,11.9
2018-01-31T02:17:01.710Z,13.0
2018-01-31T02:18:03.588Z,12.5
2018-01-31T02:19:05.332Z,13.2
2018-01-31T02:20:07.139Z,12.6
2018-01-31T02:21:08.794Z,12.5
2018-01-31T02:22:10.487Z,12.8
2018-01-31T02:23:12.232Z,13.0
2018-01-31T02:24:13.926Z,12.7
2018-01-31T02:25:15.585Z,12.3
2018-01-31T02:26:17.250Z,12.8
2018-01-31T02:27:19.081Z,12.8
2018-01-31T02:28:20.951Z,12.9
2018-01-31T02:29:22.764Z,13.2
2018-01-31T02:30:24.605Z,12.7
2018-01-31T02:31:26.310Z,12.3
2018-01-31T02:32:28.134Z,12.7
2018-01-31T02:33:29.812Z,13.6
2018-01-31T02:34:31.427Z,13.4
2018-01-31T02:35:33.054Z,13.0
2018-01-31T02:36:34.692Z,13.0
2018-01-31T02:37:36.587Z,12.2
2018-01-31T02:38:38.249Z,12.6
2018-01-31T02:39:39.872Z,12.7
2018-01-31T02:40:41.532Z,12.1
2018-01-31T02:41:43.243Z,12.2
2018-01-31T02:42:44.893Z,11.9
2018-01-31T02:43:46.731Z,12.9
2018-01-31T02:44:48.365Z,12.6
2018-01-31T02:45:50.115Z,13.3
2018-01-31T02:46:51.975Z,12.5
2018-01-31T02:47:53.648Z,12.9
2018-01-31T02:48:55.361Z,13.4
2018-01-31T02:49:56.998Z,12.6
2018-01-31T02:50:58.623Z,13.0
2018-01-31T02:52:00.254Z,12.8
2018-01-31T02:53:01.880Z,13.3
2018-01-31T02:54:03.598Z,13.4
2018-01-31T02:55:05.409Z,14.1
2018-01-31T02:56:07.055Z,13.7
2018-01-31T02:57:08.742Z,13.3
2018-01-31T02:58:10.362Z,12.8
2018-01-31T02:59:12.012Z,13.8
2018-01-31T03:00:13.858Z,13.1
2018-01-31T03:01:15.498Z,13.9
2018-01-31T03:02:17.362Z,13.1
2018-01-31T03:03:19.220Z,13.2
2018-01-31T03:04:20.943Z,12.7
2018-01-31T03:05:22.626Z,13.7
2018-01-31T03:06:24.307Z,13.8
2018-01-31T03:07:26.153Z,14.2
2018-01-31T03:08:27.857Z,13.7
2018-01-31T03:09:29.553Z,13.7
2018-01-31T03:10:31.258Z,13.7
2018-01-31T03:11:32.979Z,13.9
2018-01-31T03:12:34.874Z,13.2
2018-01-31T03:13:36.679Z,13.7
2018-01-31T03:14:38.345Z,14.5
2018-01-31T03:15:39.953Z,14.4
2018-01-31T03:16:41.582Z,13.5
2018-01-31T03:17:43.306Z,14.1
2018-01-31T03:18:45.146Z,14.0
2018-01-31T03:19:46.852Z,14.1
2018-01-31T03:20:48.686Z,14.3
2018-01-31T03:21:50.298Z,14.4
2018-01-31T03:22:51.923Z,13.8
2018-01-31T03:23:53.561Z,13.8
2018-01-31T03:24:55.403Z,12.9
2018-01-31T03:25:57.031Z,13.5
2018-01-31T03:26:58.686Z,14.1
2018-01-31T03:28:00.372Z,13.1
2018-01-31T03:29:02.018Z,13.6
2018-01-31T03:30:03.667Z,12.5
2018-01-31T03:31:05.298Z,13.5
2018-01-31T03:32:07.162Z,13.4
2018-01-31T03:33:08.807Z,14.2
2018-01-31T03:34:10.482Z,13.9
2018-01-31T03:35:12.452Z,13.6
2018-01-31T03:36:14.272Z,13.2
2018-01-31T03:37:15.992Z,12.4
2018-01-31T03:38:17.731Z,13.1
2018-01-31T03:39:19.489Z,12.8
2018-01-31T03:40:21.211Z,12.9
2018-01-31T03:41:22.839Z,13.0
2018-01-31T03:42:24.621Z,12.8
2018-01-31T03:43:26.310Z,12.5
2018-01-31T03:44:28.005Z,12.2
2018-01-31T03:45:29.612Z,11.7
2018-01-31T03:46:31.294Z,11.4
2018-01-31T03:47:33.011Z,12.0
2018-01-31T03:48:34.834Z,11.7
2018-01-31T03:49:36.523Z,12.3
2018-01-31T03:50:38.383Z,12.7
2018-01-31T03:51:40.254Z,11.8
2018-01-31T03:52:42.097Z,12.2
2018-01-31T03:53:43.736Z,11.9
2018-01-31T03:54:45.458Z,13.0
2018-01-31T03:55:47.125Z,12.6
2018-01-31T03:56:48.796Z,11.8
2018-01-31T03:57:50.772Z,13.3
2018-01-31T03:58:53.008Z,11.4
2018-01-31T03:59:54.807Z,12.3
2018-01-31T04:00:56.694Z,12.1
2018-01-31T04:01:58.305Z,11.8
2018-01-31T04:03:00.011Z,11.5
2018-01-31T04:04:01.855Z,11.5
2018-01-31T04:05:03.774Z,11.5
2018-01-31T04:06:05.762Z,11.5
2018-01-31T04:07:07.819Z,11.6
2018-01-31T04:08:09.641Z,11.9
2018-01-31T04:09:11.253Z,11.3
2018-01-31T04:10:12.923Z,10.8
2018-01-31T04:11:14.606Z,11.0
2018-01-31T04:12:16.223Z,10.8
2018-01-31T04:13:17.862Z,10.5
2018-01-31T04:14:19.694Z,10.7
2018-01-31T04:15:21.452Z,10.7
2018-01-31T04:16:23.124Z,10.5
2018-01-31T04:17:24.874Z,10.2
2018-01-31T04:18:26.583Z,10.1
2018-01-31T04:19:28.264Z,10.0
2018-01-31T04:20:29.930Z,10.0
2018-01-31T04:21:31.781Z,9.7
2018-01-31T04:22:33.678Z,9.9
2018-01-31T04:23:35.484Z,10.2
2018-01-31T04:24:37.202Z,9.7
2018-01-31T04:25:38.956Z,9.8
2018-01-31T04:26:40.659Z,10.3
2018-01-31T04:27:42.383Z,9.6
2018-01-31T04:28:44.100Z,9.3
2018-01-31T04:29:45.974Z,9.7
2018-01-31T04:30:47.695Z,9.2
2018-01-31T04:31:49.338Z,10.4
2018-01-31T04:32:51.071Z,9.2
2018-01-31T04:33:52.831Z,9.6
2018-01-31T04:34:54.883Z,9.1
2018-01-31T04:35:56.995Z,9.2
2018-01-31T04:36:58.920Z,9.6
2018-01-31T04:38:01.021Z,9.4
2018-01-31T04:39:03.106Z,8.7
2018-01-31T04:40:05.111Z,8.6
2018-01-31T04:41:06.981Z,9.7
2018-01-31T04:42:08.680Z,9.0
2018-01-31T04:43:10.377Z,9.0
2018-01-31T04:44:12.233Z,8.6
2018-01-31T04:45:14.043Z,9.1
2018-01-31T04:46:15.907Z,8.5
2018-01-31T04:47:17.835Z,9.0
2018-01-31T04:48:19.866Z,8.4
2018-01-31T04:49:21.806Z,8.9
2018-01-31T04:50:23.791Z,8.6
2018-01-31T04:51:25.873Z,8.7
2018-01-31T04:52:28.155Z,8.4
2018-01-31T04:53:30.077Z,8.1
2018-01-31T04:54:32.172Z,8.7
2018-01-31T04:55:34.026Z,7.7
2018-01-31T04:56:35.916Z,8.0
2018-01-31T04:57:37.791Z,8.0
2018-01-31T04:58:39.460Z,8.2
2018-01-31T04:59:41.124Z,8.7
2018-01-31T05:00:43.066Z,8.2
2018-01-31T05:01:45.044Z,8.1
2018-01-31T05:02:47.232Z,8.0
2018-01-31T05:03:49.260Z,7.8
2018-01-31T05:04:51.246Z,8.5
2018-01-31T05:05:53.135Z,8.3
2018-01-31T05:06:54.760Z,7.8
2018-01-31T05:07:56.414Z,7.8
2018-01-31T05:08:58.305Z,7.9
2018-01-31T05:10:00.103Z,8.1
2018-01-31T05:11:01.819Z,7.6
2018-01-31T05:12:03.627Z,7.4
2018-01-31T05:13:05.332Z,7.1
2018-01-31T05:14:07.001Z,7.1
2018-01-31T05:15:08.813Z,6.9
2018-01-31T05:16:10.421Z,6.3
2018-01-31T05:17:12.264Z,6.9
2018-01-31T05:18:13.994Z,4.7
2018-01-31T05:19:15.773Z,3.4
2018-01-31T05:20:19.393Z,3.1
2018-01-31T05:21:21.261Z,2.0
2018-01-31T05:22:23.146Z,1.8
2018-01-31T05:23:24.886Z,1.2
2018-01-31T05:24:26.768Z,1.0
2018-01-31T05:25:28.461Z,0.9
2018-01-31T05:26:30.297Z,1.0
2018-01-31T05:27:32.421Z,0.8
2018-01-31T05:28:34.669Z,0.7
2018-01-31T05:29:36.894Z,0.7
2018-01-31T05:30:38.782Z,0.6
2018-01-31T05:31:40.572Z,0.6
2018-01-31T05:32:42.880Z,0.7
2018-01-31T05:33:44.581Z,0.6
2018-01-31T05:34:46.354Z,0.5
2018-01-31T05:35:49.573Z,0.6
2018-01-31T05:36:51.530Z,0.5
2018-01-31T05:37:53.239Z,0.6
2018-01-31T05:38:55.823Z,0.5
2018-01-31T05:39:57.906Z,0.5
2018-01-31T05:40:59.871Z,0.6
2018-01-31T05:42:01.887Z,0.6
2018-01-31T05:43:03.974Z,0.5
2018-01-31T05:44:05.892Z,0.6
2018-01-31T05:45:09.228Z,0.6
2018-01-31T05:46:11.629Z,0.5
2018-01-31T05:47:13.358Z,0.6
2018-01-31T05:48:15.112Z,0.6
2018-01-31T05:49:16.924Z,0.5
2018-01-31T05:50:18.667Z,0.6
2018-01-31T05:51:20.837Z,0.6
2018-01-31T05:52:22.587Z,0.6
2018-01-31T05:53:24.319Z,0.5
2018-01-31T05:54:26.503Z,0.6
2018-01-31T05:55:29.268Z,0.6
2018-01-31T05:56:32.822Z,0.6
2018-01-31T05:57:36.087Z,0.6
2018-01-31T05:58:38.773Z,0.6
2018-01-31T05:59:41.213Z,0.5
2018-01-31T06:00:43.225Z,0.6
2018-01-31T06:01:45.104Z,0.5
2018-01-31T06:02:47.305Z,0.7
2018-01-31T06:03:49.041Z,0.5
2018-01-31T06:04:51.568Z,0.6
2018-01-31T06:05:54.155Z,0.6
2018-01-31T06:06:55.937Z,0.5
2018-01-31T06:08:00.539Z,0.5
2018-01-31T06:09:02.684Z,0.5
2018-01-31T06:10:04.846Z,0.5
2018-01-31T06:11:06.847Z,0.6
2018-01-31T06:12:08.689Z,0.6
2018-01-31T06:13:11.142Z,0.5
2018-01-31T06:14:13.081Z,0.5
2018-01-31T06:15:14.834Z,0.5
2018-01-31T06:16:16.590Z,0.5
2018-01-31T06:17:19.076Z,0.5
2018-01-31T06:18:20.831Z,0.6
2018-01-31T06:19:22.818Z,0.5
2018-01-31T06:20:24.466Z,0.6
2018-01-31T06:21:26.461Z,0.5
2018-01-31T06:22:28.184Z,0.5
2018-01-31T06:23:29.943Z,0.6
2018-01-31T06:24:32.312Z,0.6
2018-01-31T06:25:34.848Z,0.5
2018-01-31T06:26:36.614Z,0.6
2018-01-31T06:27:38.450Z,0.6
2018-01-31T06:28:40.169Z,0.6
2018-01-31T06:29:41.921Z,0.5
2018-01-31T06:30:43.800Z,0.5
2018-01-31T06:31:45.548Z,0.5
2018-01-31T06:32:47.314Z,0.6
2018-01-31T06:33:49.073Z,0.5
2018-01-31T06:34:50.922Z,0.7
2018-01-31T06:35:52.699Z,0.6
2018-01-31T06:36:54.481Z,0.6
2018-01-31T06:37:56.198Z,0.6
2018-01-31T06:38:58.047Z,0.6
2018-01-31T06:39:59.735Z,0.6
2018-01-31T06:41:01.986Z,0.6
2018-01-31T06:42:03.901Z,0.6
2018-01-31T06:43:06.568Z,0.6
2018-01-31T06:44:08.330Z,0.6
2018-01-31T06:45:10.888Z,0.6
2018-01-31T06:46:13.302Z,0.6
2018-01-31T06:47:15.404Z,0.6
2018-01-31T06:48:17.262Z,0.6
2018-01-31T06:49:19.041Z,0.7
2018-01-31T06:50:20.786Z,0.7
2018-01-31T06:51:22.489Z,0.7
2018-01-31T06:52:24.265Z,0.5
2018-01-31T06:53:25.984Z,0.7
2018-01-31T06:54:27.724Z,0.5
2018-01-31T06:55:29.487Z,0.6
2018-01-31T06:56:31.210Z,0.6
2018-01-31T06:57:33.484Z,0.7
2018-01-31T06:58:35.207Z,0.6
2018-01-31T06:59:36.919Z,0.7
2018-01-31T07:00:38.644Z,0.7
2018-01-31T07:01:41.157Z,0.6
2018-01-31T07:02:43.464Z,0.6
2018-01-31T07:03:45.169Z,0.7
2018-01-31T07:04:46.931Z,0.6
2018-01-31T07:05:49.155Z,0.6
2018-01-31T07:06:51.405Z,0.6
2018-01-31T07:07:54.758Z,0.6
2018-01-31T07:08:58.520Z,0.6
2018-01-31T07:10:00.784Z,0.6
2018-01-31T07:11:04.060Z,0.7
2018-01-31T07:12:07.658Z,0.7
2018-01-31T07:13:10.733Z,0.7
2018-01-31T07:14:12.474Z,0.6
2018-01-31T07:15:15.005Z,0.7
2018-01-31T07:16:17.081Z,0.7
2018-01-31T07:18:23.564Z,0.6
2018-01-31T07:19:25.732Z,0.6
2018-01-31T07:20:28.128Z,0.6
2018-01-31T07:21:30.128Z,0.5
2018-01-31T07:22:31.821Z,0.6
2018-01-31T07:23:34.019Z,0.5
2018-01-31T07:24:35.749Z,0.6
2018-01-31T07:25:37.499Z,0.5
2018-01-31T07:26:39.561Z,0.5
2018-01-31T07:27:41.355Z,0.5
2018-01-31T07:28:43.346Z,0.5
2018-01-31T07:29:45.724Z,0.5
2018-01-31T07:30:47.858Z,0.5
2018-01-31T07:31:50.054Z,0.5
2018-01-31T07:32:52.297Z,0.4
2018-01-31T07:33:54.496Z,0.5
2018-01-31T07:34:56.694Z,0.4
2018-01-31T07:35:58.985Z,0.6
2018-01-31T07:37:01.071Z,0.6
2018-01-31T07:38:02.748Z,0.5
2018-01-31T07:39:04.446Z,0.5
2018-01-31T07:40:06.934Z,0.5
2018-01-31T07:41:09.265Z,0.5
2018-01-31T07:42:11.708Z,0.5
2018-01-31T07:43:13.710Z,0.5
2018-01-31T07:44:15.730Z,0.5
2018-01-31T07:45:17.867Z,0.6
2018-01-31T07:46:20.241Z,0.5
2018-01-31T07:47:22.788Z,0.5
2018-01-31T07:48:24.868Z,0.5
2018-01-31T07:49:27.137Z,0.5
2018-01-31T07:50:29.162Z,0.6
2018-01-31T07:51:31.841Z,0.6
2018-01-31T07:52:34.314Z,0.6
2018-01-31T07:53:36.413Z,0.5
2018-01-31T07:54:38.650Z,0.5
2018-01-31T07:55:40.837Z,0.5
2018-01-31T07:56:43.298Z,0.6
2018-01-31T07:57:46.515Z,0.6
2018-01-31T07:58:48.952Z,0.6
2018-01-31T07:59:51.650Z,0.6
2018-01-31T08:00:53.964Z,0.4
2018-01-31T08:01:56.477Z,0.6
2018-01-31T08:02:58.801Z,0.4
2018-01-31T08:04:00.897Z,0.5
2018-01-31T08:05:03.344Z,0.6
2018-01-31T08:06:05.520Z,0.4
2018-01-31T08:07:07.432Z,0.7
2018-01-31T08:08:09.502Z,0.5
2018-01-31T08:09:12.088Z,0.5
2018-01-31T08:10:14.059Z,0.5
2018-01-31T08:11:15.947Z,0.4
2018-01-31T08:12:18.203Z,0.5
2018-01-31T08:13:20.664Z,0.5
2018-01-31T08:14:22.834Z,0.4
2018-01-31T08:15:24.612Z,0.5
2018-01-31T08:16:26.637Z,0.5
2018-01-31T08:17:28.835Z,0.5
2018-01-31T08:18:31.055Z,0.5
2018-01-31T08:19:33.190Z,0.6
2018-01-31T08:20:35.380Z,0.5
2018-01-31T08:21:38.165Z,0.5
2018-01-31T08:22:40.203Z,0.5
2018-01-31T08:23:42.671Z,0.5
2018-01-31T08:24:44.787Z,0.5
2018-01-31T08:25:46.968Z,0.5
2018-01-31T08:26:49.242Z,0.5
2018-01-31T08:27:51.384Z,0.5
2018-01-31T08:28:54.016Z,0.5
2018-01-31T08:29:56.173Z,0.5
2018-01-31T08:30:58.948Z,0.5
2018-01-31T08:32:01.278Z,0.5
2018-01-31T08:33:03.266Z,0.5
2018-01-31T08:34:05.234Z,0.5
2018-01-31T08:35:07.476Z,0.6
2018-01-31T08:36:09.274Z,0.6
2018-01-31T08:37:11.418Z,0.6
2018-01-31T08:38:14.037Z,0.7
2018-01-31T08:39:16.152Z,0.6
2018-01-31T08:40:18.385Z,0.5
2018-01-31T08:41:20.662Z,0.6
2018-01-31T08:42:22.697Z,0.4
2018-01-31T08:43:24.810Z,0.5
2018-01-31T08:44:27.045Z,0.5
2018-01-31T08:45:29.221Z,0.5
2018-01-31T08:46:31.573Z,0.5
2018-01-31T08:47:33.882Z,0.5
2018-01-31T08:48:36.214Z,0.5
2018-01-31T08:49:38.546Z,0.5
2018-01-31T08:50:40.684Z,0.5
2018-01-31T08:51:42.961Z,0.5
2018-01-31T08:52:44.974Z,0.5
2018-01-31T08:53:47.257Z,0.5
2018-01-31T08:54:49.484Z,0.5
2018-01-31T08:55:51.974Z,0.4
2018-01-31T08:56:54.019Z,0.5
2018-01-31T08:57:56.029Z,0.5
2018-01-31T08:58:58.215Z,0.6
2018-01-31T09:00:00.369Z,0.5
2018-01-31T09:01:02.872Z,0.5
2018-01-31T09:02:05.407Z,0.6
2018-01-31T09:03:07.472Z,0.5
2018-01-31T09:04:09.834Z,0.5
2018-01-31T09:05:11.561Z,0.5
2018-01-31T09:06:13.731Z,0.5
2018-01-31T09:07:15.861Z,0.6
2018-01-31T09:08:18.048Z,0.5
2018-01-31T09:09:20.047Z,0.6
2018-01-31T09:10:21.892Z,0.6
2018-01-31T09:11:23.772Z,0.5
2018-01-31T09:12:25.816Z,0.5
2018-01-31T09:13:27.874Z,0.5
2018-01-31T09:14:30.388Z,0.5
2018-01-31T09:15:32.654Z,0.5
2018-01-31T09:16:34.792Z,0.6
2018-01-31T09:17:36.888Z,0.5
2018-01-31T09:18:39.019Z,0.5
2018-01-31T09:19:41.162Z,0.5
2018-01-31T09:20:43.289Z,0.5
2018-01-31T09:21:45.394Z,0.4
2018-01-31T09:22:47.659Z,0.5
2018-01-31T09:23:49.907Z,0.5
2018-01-31T09:24:52.128Z,0.5
2018-01-31T09:25:54.053Z,0.6
2018-01-31T09:26:55.912Z,0.5
2018-01-31T09:27:58.097Z,0.5
2018-01-31T09:29:00.184Z,0.4
2018-01-31T09:30:04.007Z,0.5
2018-01-31T09:31:06.443Z,0.5
2018-01-31T09:32:09.774Z,0.5
2018-01-31T09:33:13.294Z,0.5
2018-01-31T09:34:17.720Z,0.5
2018-01-31T09:35:22.691Z,0.6
2018-01-31T09:36:25.782Z,0.4
2018-01-31T09:37:28.995Z,0.6
2018-01-31T09:38:32.058Z,0.5
2018-01-31T09:39:36.189Z,0.6
2018-01-31T09:40:38.262Z,0.5
2018-01-31T09:41:44.855Z,0.5
2018-01-31T09:42:47.897Z,0.5
2018-01-31T09:43:51.668Z,0.5
2018-01-31T09:44:54.892Z,0.6
2018-01-31T09:45:57.187Z,0.6
2018-01-31T09:47:00.340Z,0.5
2018-01-31T09:48:03.046Z,0.5
2018-01-31T09:49:06.638Z,0.6
2018-01-31T09:50:08.890Z,0.5
2018-01-31T09:51:11.570Z,0.5
2018-01-31T09:52:17.806Z,0.6
2018-01-31T09:53:18.497Z,0.5
2018-01-31T09:54:18.600Z,0.5
2018-01-31T09:55:20.747Z,0.5
2018-01-31T09:56:22.925Z,0.5
2018-01-31T09:57:25.299Z,0.5
2018-01-31T09:58:27.893Z,0.4
2018-01-31T09:59:30.198Z,0.6
2018-01-31T10:00:32.279Z,0.5
2018-01-31T10:01:34.416Z,0.5
2018-01-31T10:02:36.383Z,0.5
2018-01-31T10:03:38.286Z,0.5
2018-01-31T10:04:40.362Z,0.5
2018-01-31T10:05:42.592Z,0.5
2018-01-31T10:06:44.454Z,0.5
2018-01-31T10:07:46.289Z,0.4
2018-01-31T10:08:48.331Z,0.5
2018-01-31T10:09:50.593Z,0.5
2018-01-31T10:10:52.643Z,0.5
2018-01-31T10:11:54.659Z,0.4
2018-01-31T10:12:57.320Z,0.4
2018-01-31T10:13:59.615Z,0.4
2018-01-31T10:15:01.611Z,0.4
2018-01-31T10:16:03.914Z,0.4
2018-01-31T10:17:06.307Z,0.4
2018-01-31T10:18:08.663Z,0.5
2018-01-31T10:19:11.344Z,0.4
2018-01-31T10:20:13.898Z,0.5
2018-01-31T10:21:16.162Z,0.5
2018-01-31T10:22:18.549Z,0.5
2018-01-31T10:23:20.775Z,0.4
2018-01-31T10:24:23.147Z,0.5
2018-01-31T10:25:26.210Z,0.5
2018-01-31T10:26:28.709Z,0.4
2018-01-31T10:27:30.950Z,0.5
2018-01-31T10:28:33.239Z,0.5
2018-01-31T10:29:36.162Z,0.5
2018-01-31T10:30:39.148Z,0.6
2018-01-31T10:31:42.351Z,0.5
2018-01-31T10:32:44.824Z,0.6
2018-01-31T10:33:47.102Z,0.6
2018-01-31T10:34:49.222Z,0.6
2018-01-31T10:35:51.362Z,0.5
2018-01-31T10:36:53.306Z,0.6
2018-01-31T10:37:55.338Z,0.6
2018-01-31T10:38:57.688Z,0.6
2018-01-31T10:39:59.902Z,0.6
2018-01-31T10:41:02.082Z,0.6
2018-01-31T10:42:04.794Z,0.7
2018-01-31T10:43:08.025Z,0.7
2018-01-31T10:44:11.160Z,0.9
2018-01-31T10:45:13.567Z,0.7
2018-01-31T10:46:16.313Z,0.6
2018-01-31T10:47:18.139Z,0.6
2018-01-31T10:48:20.471Z,0.7
2018-01-31T10:49:23.179Z,0.7
2018-01-31T10:50:25.826Z,0.6
2018-01-31T10:51:28.435Z,0.6
2018-01-31T10:52:31.277Z,0.6
2018-01-31T10:53:33.729Z,0.7
2018-01-31T10:57:42.478Z,0.7
2018-01-31T10:58:44.901Z,0.6
2018-01-31T10:59:47.392Z,0.7
2018-01-31T11:00:51.425Z,0.6
2018-01-31T11:01:53.730Z,0.6
2018-01-31T11:02:56.172Z,1.0
2018-01-31T11:03:58.747Z,0.8
2018-01-31T11:05:00.829Z,0.9
2018-01-31T11:06:02.894Z,0.7
2018-01-31T11:07:05.456Z,1.0
2018-01-31T11:08:07.767Z,1.2
2018-01-31T11:09:10.021Z,0.8
2018-01-31T11:10:12.127Z,0.8
2018-01-31T11:11:15.233Z,1.0
2018-01-31T11:12:17.719Z,1.1
2018-01-31T11:13:20.270Z,1.4
2018-01-31T11:14:22.607Z,1.1
2018-01-31T11:15:25.203Z,0.8
2018-01-31T11:16:27.396Z,1.2
2018-01-31T11:17:29.412Z,1.3
2018-01-31T11:18:31.552Z,1.3
2018-01-31T11:19:33.716Z,2.1
2018-01-31T11:20:35.775Z,2.3
2018-01-31T11:21:37.806Z,2.1
2018-01-31T11:22:40.571Z,1.3
2018-01-31T11:23:42.831Z,1.4
2018-01-31T11:24:45.034Z,2.3
2018-01-31T11:25:49.033Z,2.5
2018-01-31T11:26:51.330Z,1.4
2018-01-31T11:27:53.490Z,1.5
2018-01-31T11:28:55.565Z,1.3
2018-01-31T11:29:57.476Z,1.0
2018-01-31T11:30:59.233Z,1.0
2018-01-31T11:32:01.084Z,0.8
2018-01-31T11:33:03.074Z,1.0
2018-01-31T11:34:05.490Z,1.2
2018-01-31T11:35:08.125Z,1.1
2018-01-31T11:36:10.309Z,1.1
2018-01-31T11:37:12.349Z,1.1
2018-01-31T11:38:14.777Z,0.8
2018-01-31T11:39:16.993Z,0.9
2018-01-31T11:40:19.684Z,0.8
2018-01-31T11:41:22.248Z,0.8
2018-01-31T11:42:24.210Z,0.8
2018-01-31T11:43:26.936Z,0.8
2018-01-31T11:44:29.529Z,0.7
2018-01-31T11:45:31.809Z,0.8
2018-01-31T11:46:33.903Z,0.7
2018-01-31T11:47:36.641Z,0.9
2018-01-31T11:48:39.042Z,0.8
2018-01-31T11:49:41.167Z,0.9
2018-01-31T11:50:43.193Z,0.8
2018-01-31T11:51:45.405Z,0.8
2018-01-31T11:52:47.564Z,0.8
2018-01-31T11:53:50.200Z,0.8
2018-01-31T11:54:52.501Z,0.8
2018-01-31T11:55:55.170Z,0.8
2018-01-31T11:56:57.319Z,0.8
2018-01-31T11:57:59.528Z,0.8
2018-01-31T11:59:02.432Z,0.8
2018-01-31T12:00:04.613Z,0.8
2018-01-31T12:01:06.808Z,0.8
2018-01-31T12:02:09.033Z,0.8
2018-01-31T12:03:11.618Z,0.8
2018-01-31T12:04:14.286Z,0.7
2018-01-31T12:05:16.717Z,0.8
2018-01-31T12:06:18.804Z,0.8
2018-01-31T12:07:21.417Z,0.7
2018-01-31T12:08:23.675Z,0.8
2018-01-31T12:09:26.212Z,0.7
2018-01-31T12:10:28.585Z,0.7
2018-01-31T12:11:31.047Z,0.7
2018-01-31T12:12:33.866Z,0.8
2018-01-31T12:13:36.272Z,0.7
2018-01-31T12:14:39.437Z,0.7
2018-01-31T12:15:42.255Z,0.7
2018-01-31T12:16:44.696Z,0.8
2018-01-31T12:17:47.430Z,0.7
2018-01-31T12:18:50.267Z,0.8
2018-01-31T12:19:52.873Z,0.7
2018-01-31T12:20:55.095Z,0.8
2018-01-31T12:21:57.595Z,0.8
2018-01-31T12:23:00.258Z,0.8
2018-01-31T12:24:02.532Z,0.7
2018-01-31T12:25:05.177Z,0.8
2018-01-31T12:26:07.786Z,0.7
2018-01-31T12:27:10.112Z,0.8
2018-01-31T12:28:12.031Z,0.8
2018-01-31T12:29:14.720Z,0.7
2018-01-31T12:30:17.933Z,0.7
2018-01-31T12:31:20.221Z,0.8
2018-01-31T12:32:22.271Z,0.7
2018-01-31T12:33:24.320Z,0.8
2018-01-31T12:34:26.752Z,0.8
2018-01-31T12:35:29.202Z,0.6
2018-01-31T12:36:31.278Z,0.7
2018-01-31T12:37:33.819Z,0.8
2018-01-31T12:38:37.631Z,0.8
2018-01-31T12:39:40.160Z,0.7
2018-01-31T12:40:43.250Z,0.7
2018-01-31T12:41:45.851Z,0.7
2018-01-31T12:42:48.129Z,0.8
2018-01-31T12:43:50.751Z,0.8
2018-01-31T12:44:53.633Z,0.8
2018-01-31T12:45:56.536Z,0.9
2018-01-31T12:46:58.883Z,0.8
2018-01-31T12:48:02.766Z,0.7
2018-01-31T12:49:04.861Z,0.7
2018-01-31T12:50:07.321Z,0.6
2018-01-31T12:51:09.406Z,0.7
2018-01-31T12:52:12.090Z,0.8
2018-01-31T12:53:14.654Z,0.8
2018-01-31T12:54:16.750Z,0.8
2018-01-31T12:55:18.855Z,0.7
2018-01-31T12:56:25.247Z,0.8
2018-01-31T12:57:27.036Z,0.7
2018-01-31T12:58:29.183Z,0.7
2018-01-31T12:59:31.388Z,0.7
2018-01-31T13:00:33.164Z,0.7
2018-01-31T13:01:35.802Z,0.7
2018-01-31T13:02:37.629Z,0.9
2018-01-31T13:03:39.349Z,0.7
2018-01-31T13:04:41.349Z,0.8
2018-01-31T13:05:43.134Z,0.7
2018-01-31T13:06:44.906Z,0.8
2018-01-31T13:07:46.912Z,0.8
2018-01-31T13:08:48.651Z,0.7
2018-01-31T13:09:50.384Z,1.0
2018-01-31T13:10:52.160Z,0.9
2018-01-31T13:11:53.835Z,0.8
2018-01-31T13:12:55.531Z,0.9
2018-01-31T13:13:57.172Z,0.9
2018-01-31T13:14:58.933Z,0.9
2018-01-31T13:16:00.550Z,1.1
2018-01-31T13:17:02.263Z,1.1
2018-01-31T13:18:04.024Z,1.0
2018-01-31T13:19:05.637Z,1.1
2018-01-31T13:20:07.246Z,1.0
2018-01-31T13:21:08.859Z,1.1
2018-01-31T13:22:10.478Z,1.1
2018-01-31T13:23:12.095Z,1.2
2018-01-31T13:24:13.706Z,1.1
2018-01-31T13:25:15.323Z,1.2
2018-01-31T13:26:16.935Z,1.1
2018-01-31T13:27:18.551Z,1.2
2018-01-31T13:28:20.263Z,1.6
2018-01-31T13:29:21.871Z,1.2
2018-01-31T13:30:23.489Z,1.1
2018-01-31T13:31:25.241Z,1.3
2018-01-31T13:32:26.881Z,1.2
2018-01-31T13:33:28.496Z,0.8
2018-01-31T13:34:30.229Z,0.9
2018-01-31T13:35:31.898Z,0.9
2018-01-31T13:36:33.566Z,0.8
2018-01-31T13:37:35.264Z,0.7
2018-01-31T13:38:36.877Z,0.7
2018-01-31T13:39:38.489Z,0.7
2018-01-31T13:40:40.105Z,0.7
2018-01-31T13:41:41.746Z,0.7
2018-01-31T13:42:43.370Z,0.7
2018-01-31T13:43:44.989Z,0.7
2018-01-31T13:44:46.722Z,0.7
2018-01-31T13:45:48.331Z,1.0
2018-01-31T13:46:49.982Z,0.9
2018-01-31T13:47:51.568Z,0.8
2018-01-31T13:48:53.353Z,0.9
2018-01-31T13:49:54.998Z,1.0
2018-01-31T13:50:56.664Z,1.0
2018-01-31T13:51:58.475Z,1.1
2018-01-31T13:53:00.047Z,1.7
2018-01-31T13:54:01.661Z,1.4
2018-01-31T13:55:03.277Z,1.0
2018-01-31T13:56:04.905Z,1.2
2018-01-31T13:57:06.520Z,1.2
2018-01-31T13:58:08.134Z,1.2
2018-01-31T13:59:09.747Z,1.8
2018-01-31T14:00:11.359Z,2.0
2018-01-31T14:01:12.976Z,1.8
2018-01-31T14:02:14.597Z,1.8
2018-01-31T14:03:16.206Z,1.8
2018-01-31T14:04:17.820Z,2.3
2018-01-31T14:05:19.436Z,1.7
2018-01-31T14:06:21.052Z,2.1
2018-01-31T14:07:22.660Z,1.7
2018-01-31T14:08:24.277Z,1.9
2018-01-31T14:09:25.889Z,1.4
2018-01-31T14:10:27.505Z,1.4
2018-01-31T14:11:29.124Z,1.2
2018-01-31T14:12:30.742Z,1.2
2018-01-31T14:13:32.357Z,1.3
2018-01-31T14:14:33.972Z,1.3
2018-01-31T14:15:35.586Z,1.3
2018-01-31T14:16:37.197Z,1.3
2018-01-31T14:17:38.812Z,1.3
2018-01-31T14:18:40.427Z,1.3
2018-01-31T14:19:42.043Z,1.4
2018-01-31T14:20:43.659Z,0.9
2018-01-31T14:21:45.272Z,0.8
2018-01-31T14:22:46.884Z,0.8
2018-01-31T14:23:48.496Z,0.9
2018-01-31T14:24:50.110Z,1.0
2018-01-31T14:25:51.755Z,1.0
2018-01-31T14:26:53.337Z,0.8
2018-01-31T14:27:54.949Z,1.0
2018-01-31T14:28:56.590Z,1.1
2018-01-31T14:29:58.201Z,1.0
2018-01-31T14:30:59.816Z,1.0
2018-01-31T14:32:01.431Z,0.8
2018-01-31T14:33:03.049Z,0.9
2018-01-31T14:34:04.661Z,0.7
2018-01-31T14:35:06.273Z,0.8
2018-01-31T14:36:07.886Z,0.8
2018-01-31T14:37:09.502Z,0.8
2018-01-31T14:38:11.110Z,1.0
2018-01-31T14:39:12.750Z,0.9
2018-01-31T14:40:14.353Z,1.0
2018-01-31T14:41:15.978Z,0.9
2018-01-31T14:42:17.621Z,0.9
2018-01-31T14:43:19.387Z,1.0
2018-01-31T14:44:20.998Z,0.9
2018-01-31T14:45:22.636Z,1.0
2018-01-31T14:46:24.247Z,0.9
2018-01-31T14:47:25.859Z,1.0
2018-01-31T14:48:27.476Z,1.1
2018-01-31T14:49:29.086Z,0.9
2018-01-31T14:50:30.698Z,0.7
2018-01-31T14:51:32.314Z,0.9
2018-01-31T14:52:33.922Z,0.9
2018-01-31T14:53:35.533Z,0.9
2018-01-31T14:54:39.165Z,0.8
2018-01-31T14:55:43.213Z,0.8
2018-01-31T14:56:44.559Z,0.8
2018-01-31T14:57:46.762Z,0.8
2018-01-31T14:58:48.673Z,0.7
2018-01-31T14:59:50.233Z,0.7
2018-01-31T15:00:51.846Z,0.9
2018-01-31T15:01:53.486Z,0.8
2018-01-31T15:02:55.169Z,1.0
2018-01-31T15:03:56.783Z,0.7
2018-01-31T15:04:58.395Z,0.8
2018-01-31T15:06:00.277Z,0.9
2018-01-31T15:07:01.926Z,0.8
2018-01-31T15:08:03.540Z,0.8
2018-01-31T15:09:05.152Z,0.9
2018-01-31T15:10:06.767Z,0.9
2018-01-31T15:11:08.384Z,0.9
2018-01-31T15:12:09.995Z,0.8
2018-01-31T15:13:11.645Z,0.8
2018-01-31T15:14:13.256Z,0.9
2018-01-31T15:15:14.870Z,0.8
2018-01-31T15:16:16.486Z,1.0
2018-01-31T15:17:18.101Z,1.0
2018-01-31T15:18:19.737Z,1.0
2018-01-31T15:19:21.935Z,0.9
2018-01-31T15:20:23.548Z,0.9
2018-01-31T15:21:25.165Z,0.9
2018-01-31T15:22:26.777Z,0.8
2018-01-31T15:23:28.391Z,0.8
2018-01-31T15:24:30.005Z,0.9
2018-01-31T15:25:31.620Z,1.0
2018-01-31T15:26:33.232Z,0.9
2018-01-31T15:27:34.844Z,1.0
2018-01-31T15:28:36.645Z,1.0
2018-01-31T15:29:38.192Z,1.1
2018-01-31T15:30:39.985Z,0.9
2018-01-31T15:31:41.603Z,0.9
2018-01-31T15:32:43.260Z,0.9
2018-01-31T15:33:46.518Z,0.9
2018-01-31T15:34:48.119Z,1.0
2018-01-31T15:35:49.731Z,1.0
2018-01-31T15:36:51.343Z,0.9
2018-01-31T15:37:52.956Z,0.9
2018-01-31T15:38:54.573Z,0.9
2018-01-31T15:39:56.186Z,1.2
2018-01-31T15:40:57.829Z,0.9
2018-01-31T15:41:59.440Z,1.0
2018-01-31T15:43:01.052Z,0.9
2018-01-31T15:44:02.657Z,0.9
2018-01-31T15:45:04.277Z,0.9
2018-01-31T15:46:07.035Z,0.9
2018-01-31T15:47:08.797Z,1.0
2018-01-31T15:48:12.691Z,0.9
2018-01-31T15:49:15.668Z,0.9
2018-01-31T15:50:17.555Z,0.9
2018-01-31T15:51:19.156Z,0.9
2018-01-31T15:52:20.885Z,0.9
2018-01-31T15:53:22.507Z,1.0
2018-01-31T15:54:24.120Z,1.6
2018-01-31T15:55:25.811Z,1.3
2018-01-31T15:56:27.481Z,1.3
2018-01-31T15:57:29.100Z,1.4
2018-01-31T15:58:30.726Z,1.1
2018-01-31T15:59:32.452Z,1.1
2018-01-31T16:00:34.084Z,1.1
2018-01-31T16:01:36.141Z,1.0
2018-01-31T16:02:38.154Z,0.9
2018-01-31T16:03:39.900Z,1.1
2018-01-31T16:04:41.824Z,1.0